In Rescue
 
Open Full Screen Window  High Contrast Mode
April 20, 2024 9:44 AM EDT
Weather Information
Wind Direction
  ---
Wind Speed
  00 kt (0 mph)
Wind Gust
  00 kt (0 mph)
Altimeter
29.90 in
Visibility
10 SM
Temperature
07° C
45° F
Dewpoint
-04° C
25° F
Humidity
45%
Sky Condition
Overcast @ 5,000 ft
VFR

METAR KEFK 201344Z AUTO 00000KT 10SM OVC050 07/M04 A2990 RMK AO2 T00681038

FAA Disclaimer: The data displayed is for advisory purposes only and is not to be used for flight planning or operations.